Time;durP1;ratioP1;P1;durP2;ratioP2;P2;SDS_P1;SDS_P2;PMS_P1;PMS_P2;Temp;Humidity;BMP_temperature;BMP_pressure;BME280_temperature;BME280_humidity;BME280_pressure;Samples;Min_cycle;Max_cycle;Signal;HPM_P1;HPM_P2
2021/07/06 00:00:20;;;;;;;0.70;0.60;;;19.10;99.90;;;-143.50;100.00;58913.53;4995827;28;20536;-72
2021/07/06 00:02:50;;;;;;;0.70;0.60;;;19.10;99.90;;;-143.50;100.00;58913.53;4995842;28;20458;-72
2021/07/06 00:05:19;;;;;;;0.70;0.60;;;19.20;99.90;;;-143.50;100.00;58913.53;4994998;28;21094;-72
2021/07/06 00:07:48;;;;;;;0.80;0.70;;;19.20;99.90;;;-143.50;100.00;58913.53;4994188;28;20513;-72
2021/07/06 00:10:20;;;;;;;0.70;0.70;;;19.20;99.90;;;-143.50;100.00;58913.53;4994562;28;20445;-72
2021/07/06 00:12:49;;;;;;;0.70;0.60;;;19.20;99.90;;;-143.50;100.00;58913.53;4994420;28;20413;-72
2021/07/06 00:15:24;;;;;;;0.70;0.60;;;19.20;99.90;;;-143.50;100.00;58913.53;4995325;28;20415;-72
2021/07/06 00:17:53;;;;;;;0.70;0.70;;;19.20;99.90;;;-143.50;100.00;58913.53;4994316;28;20440;-72
2021/07/06 00:20:22;;;;;;;0.70;0.60;;;19.30;99.90;;;-143.50;100.00;58913.53;4995691;28;20888;-72
2021/07/06 00:22:50;;;;;;;0.70;0.60;;;19.20;99.90;;;-143.50;100.00;58913.53;4994274;28;20421;-72
2021/07/06 00:25:19;;;;;;;0.70;0.60;;;19.30;99.90;;;-143.50;100.00;58913.53;4995295;28;20500;-72
2021/07/06 00:27:47;;;;;;;0.70;0.60;;;19.20;99.90;;;-143.50;100.00;58913.53;4994248;28;20915;-72
2021/07/06 00:30:18;;;;;;;0.80;0.70;;;19.10;99.90;;;-143.50;100.00;58913.53;4994800;28;20437;-72
2021/07/06 00:32:45;;;;;;;0.80;0.70;;;19.00;99.90;;;-143.50;100.00;58913.53;4994529;28;20449;-72
2021/07/06 00:35:13;;;;;;;0.70;0.70;;;19.10;99.90;;;-143.50;100.00;58913.53;4995085;28;20390;-72
2021/07/06 00:37:41;;;;;;;0.70;0.60;;;19.10;99.90;;;-143.50;100.00;58913.53;5024976;28;21018;-72
2021/07/06 00:40:10;;;;;;;0.70;0.60;;;19.10;99.90;;;-143.50;100.00;58913.53;4994598;28;20435;-72
2021/07/06 00:42:40;;;;;;;0.70;0.60;;;19.20;99.90;;;-143.50;100.00;58913.53;4995127;28;20438;-72
2021/07/06 00:45:11;;;;;;;0.70;0.60;;;19.20;99.90;;;-143.50;100.00;58913.53;4994993;28;20960;-72
2021/07/06 00:47:42;;;;;;;0.70;0.60;;;19.20;99.90;;;-143.50;100.00;58913.53;4993867;28;20445;-72
2021/07/06 00:50:13;;;;;;;0.70;0.70;;;19.20;99.90;;;-143.50;100.00;58913.53;4994603;28;20433;-72
2021/07/06 00:52:42;;;;;;;0.70;0.67;;;19.10;99.90;;;-143.50;100.00;58913.53;4994437;28;20415;-72
2021/07/06 00:55:10;;;;;;;0.70;0.63;;;19.10;99.90;;;-143.50;100.00;58913.53;4994699;28;20519;-72
2021/07/06 00:57:38;;;;;;;0.70;0.60;;;19.10;99.90;;;-143.50;100.00;58913.53;4976845;28;20435;-72
2021/07/06 01:00:10;;;;;;;0.70;0.60;;;19.00;99.90;;;-143.50;100.00;58913.53;4994197;28;20482;-72
2021/07/06 01:02:40;;;;;;;0.70;0.60;;;19.00;99.90;;;-143.50;100.00;58913.53;4994683;28;20388;-72
2021/07/06 01:05:10;;;;;;;0.70;0.60;;;18.90;99.90;;;-143.50;100.00;58913.53;4994120;28;20481;-72
2021/07/06 01:07:39;;;;;;;0.70;0.60;;;18.80;99.90;;;-143.50;100.00;58913.53;4993151;28;20455;-72
2021/07/06 01:10:09;;;;;;;0.70;0.60;;;18.80;99.90;;;-143.50;100.00;58913.53;4994622;28;20437;-72
2021/07/06 01:12:37;;;;;;;0.80;0.70;;;18.70;99.90;;;-143.50;100.00;58913.53;4994422;28;20411;-71
2021/07/06 01:15:09;;;;;;;0.70;0.60;;;18.70;99.90;;;-143.50;100.00;58913.53;4994354;28;20892;-72
2021/07/06 01:17:39;;;;;;;0.70;0.60;;;18.60;99.90;;;-143.50;100.00;58913.53;4991723;28;20426;-72
2021/07/06 01:20:11;;;;;;;0.70;0.67;;;18.50;99.90;;;-143.50;100.00;58913.53;4992533;28;20443;-72
2021/07/06 01:22:41;;;;;;;0.70;0.60;;;18.50;99.90;;;-143.50;100.00;58913.53;4992993;28;20415;-72
2021/07/06 01:25:11;;;;;;;0.70;0.60;;;18.40;99.90;;;-143.50;100.00;58913.53;4991628;28;20429;-72
2021/07/06 01:27:40;;;;;;;0.70;0.60;;;18.30;99.90;;;-143.50;100.00;58913.53;4993997;28;20830;-72
2021/07/06 01:30:12;;;;;;;0.70;0.60;;;18.20;99.90;;;-143.50;100.00;58913.53;4994130;28;20474;-71
2021/07/06 01:32:40;;;;;;;0.73;0.67;;;18.00;99.90;;;-143.50;100.00;58913.53;4993138;28;20942;-72
2021/07/06 01:35:10;;;;;;;0.70;0.60;;;17.90;99.90;;;-143.50;100.00;58913.53;4992649;28;20442;-72
2021/07/06 01:37:45;;;;;;;0.70;0.60;;;17.90;99.90;;;-143.50;100.00;58913.53;4991845;28;20440;-72
2021/07/06 01:40:17;;;;;;;0.70;0.70;;;17.80;99.90;;;-143.50;100.00;58913.53;4992597;28;20432;-71
2021/07/06 01:42:45;;;;;;;0.70;0.60;;;17.80;99.90;;;-143.50;100.00;58913.53;4993908;28;20425;-72
2021/07/06 01:45:16;;;;;;;0.80;0.70;;;17.80;99.90;;;-143.50;100.00;58913.53;4993300;28;20493;-72
2021/07/06 01:47:46;;;;;;;0.80;0.70;;;17.90;99.90;;;-143.50;100.00;58913.53;4993555;28;20441;-72
2021/07/06 01:50:19;;;;;;;0.70;0.60;;;17.90;99.90;;;-143.50;100.00;58913.53;4974500;28;20838;-72
2021/07/06 01:52:51;;;;;;;0.70;0.60;;;18.00;99.90;;;-143.50;100.00;58913.53;4975779;28;20447;-72
2021/07/06 01:55:22;;;;;;;0.70;0.60;;;18.00;99.90;;;-143.50;100.00;58913.53;4993173;28;20442;-72
2021/07/06 01:57:51;;;;;;;0.70;0.70;;;18.10;99.90;;;-143.50;100.00;58913.53;4991804;28;20435;-72
2021/07/06 02:00:21;;;;;;;0.70;0.60;;;18.10;99.90;;;-143.50;100.00;58913.53;4991419;28;20461;-72
2021/07/06 02:02:49;;;;;;;0.70;0.70;;;18.10;99.90;;;-143.50;100.00;58913.53;4993610;28;20413;-72
2021/07/06 02:05:31;;;;;;;0.70;0.60;;;18.20;99.90;;;-143.50;100.00;58913.53;4993016;28;20939;-72
2021/07/06 02:08:01;;;;;;;0.70;0.60;;;18.20;99.90;;;-143.50;100.00;58913.53;4993271;28;20438;-72
2021/07/06 02:10:30;;;;;;;0.70;0.60;;;18.20;99.90;;;-143.50;100.00;58913.53;4993511;28;20458;-72
2021/07/06 02:12:58;;;;;;;0.70;0.60;;;18.30;99.90;;;-143.50;100.00;58913.53;4993498;28;20478;-72
2021/07/06 02:15:27;;;;;;;0.70;0.60;;;18.20;99.90;;;-143.50;100.00;58913.53;4992953;28;20450;-72
2021/07/06 02:17:56;;;;;;;0.70;0.67;;;18.20;99.90;;;-143.50;100.00;58913.53;4992471;28;20883;-72
2021/07/06 02:20:23;;;;;;;0.70;0.60;;;18.20;99.90;;;-143.50;100.00;58913.53;4993618;28;20430;-72
2021/07/06 02:23:10;;;;;;;0.70;0.60;;;18.20;99.90;;;-143.50;100.00;58913.53;4992812;28;20448;-72
2021/07/06 02:25:38;;;;;;;0.70;0.63;;;18.20;99.90;;;-143.50;100.00;58913.53;4993975;28;20948;-72
2021/07/06 02:28:05;;;;;;;0.70;0.60;;;18.30;99.90;;;-143.50;100.00;58913.53;4993147;28;20470;-72
2021/07/06 02:30:33;;;;;;;0.70;0.70;;;18.30;99.90;;;-143.50;100.00;58913.53;4993578;28;20468;-72
2021/07/06 02:33:00;;;;;;;0.70;0.60;;;18.30;99.90;;;-143.50;100.00;58913.53;4992827;28;20422;-72
2021/07/06 02:35:28;;;;;;;0.70;0.70;;;18.40;99.90;;;-143.50;100.00;58913.53;4992895;28;21010;-72
2021/07/06 02:37:58;;;;;;;0.70;0.70;;;18.40;99.90;;;-143.50;100.00;58913.53;4992921;28;20500;-72
2021/07/06 02:40:29;;;;;;;0.70;0.60;;;18.50;99.90;;;-143.50;100.00;58913.53;4993412;28;20426;-72
2021/07/06 02:42:58;;;;;;;0.70;0.60;;;18.50;99.90;;;-143.50;100.00;58913.53;4992371;28;20481;-72
2021/07/06 02:45:29;;;;;;;0.70;0.60;;;18.50;99.90;;;-143.50;100.00;58913.53;4991707;28;20459;-72
2021/07/06 02:47:57;;;;;;;0.70;0.67;;;18.50;99.90;;;-143.50;100.00;58913.53;4995712;28;20966;-72
2021/07/06 02:50:27;;;;;;;0.80;0.70;;;18.50;99.90;;;-143.50;100.00;58913.53;4996905;28;20545;-72
2021/07/06 02:52:55;;;;;;;0.70;0.60;;;18.50;99.90;;;-143.50;100.00;58913.53;4996305;28;20440;-73
2021/07/06 02:55:23;;;;;;;0.70;0.60;;;18.40;99.90;;;-143.50;100.00;58913.53;4996237;28;20482;-71
2021/07/06 02:57:53;;;;;;;0.70;0.60;;;18.40;99.90;;;-143.50;100.00;58913.53;4995719;28;20454;-72
2021/07/06 03:00:23;;;;;;;0.70;0.63;;;18.40;99.90;;;-143.50;100.00;58913.53;4996621;28;20439;-72
2021/07/06 03:02:53;;;;;;;0.70;0.60;;;18.40;99.90;;;-143.50;100.00;58913.53;4997076;28;20419;-72
2021/07/06 03:05:24;;;;;;;0.70;0.70;;;18.40;99.90;;;-143.50;100.00;58913.53;4996232;28;20489;-72
2021/07/06 03:07:53;;;;;;;0.70;0.70;;;18.40;99.90;;;-143.50;100.00;58913.53;4996139;28;20436;-72
2021/07/06 03:10:24;;;;;;;0.70;0.63;;;18.40;99.90;;;-143.50;100.00;58913.53;4996832;28;20597;-72
2021/07/06 03:12:53;;;;;;;0.70;0.70;;;18.30;99.90;;;-143.50;100.00;58913.53;4996802;28;20394;-72
2021/07/06 03:15:24;;;;;;;0.70;0.60;;;18.30;99.90;;;-143.50;100.00;58913.53;4995129;28;20446;-72
2021/07/06 03:18:10;;;;;;;0.70;0.60;;;18.20;99.90;;;-143.50;100.00;58913.53;4995326;28;20446;-72
2021/07/06 03:20:38;;;;;;;0.70;0.60;;;18.20;99.90;;;-143.50;100.00;58913.53;5011066;28;20844;-72
2021/07/06 03:23:06;;;;;;;0.70;0.60;;;18.10;99.90;;;-143.50;100.00;58913.53;4996203;28;20510;-72
2021/07/06 03:25:35;;;;;;;0.70;0.60;;;18.10;99.90;;;-143.50;100.00;58913.53;4995515;28;20458;-72
2021/07/06 03:28:05;;;;;;;0.70;0.60;;;18.10;99.90;;;-143.50;100.00;58913.53;4995281;28;20489;-71
2021/07/06 03:30:35;;;;;;;0.73;0.70;;;18.00;99.90;;;-143.50;100.00;58913.53;4996324;28;20870;-72
2021/07/06 03:33:06;;;;;;;0.70;0.60;;;18.00;99.90;;;-143.50;100.00;58913.53;5011379;28;20457;-72
2021/07/06 03:35:34;;;;;;;0.70;0.60;;;18.00;99.90;;;-143.50;100.00;58913.53;4994692;28;20793;-72
2021/07/06 03:38:02;;;;;;;0.70;0.60;;;18.00;99.90;;;-143.50;100.00;58913.53;4995177;28;20995;-72
2021/07/06 03:40:32;;;;;;;0.70;0.60;;;17.90;99.90;;;-143.50;100.00;58913.53;4995038;28;20486;-72
2021/07/06 03:43:00;;;;;;;0.70;0.60;;;17.90;99.90;;;-143.50;100.00;58913.53;4976960;28;20470;-72
2021/07/06 03:45:29;;;;;;;0.70;0.60;;;17.90;99.90;;;-143.50;100.00;58913.53;4992882;28;20925;-72
2021/07/06 03:47:58;;;;;;;0.70;0.70;;;17.90;99.90;;;-143.50;100.00;58913.53;4995993;28;20454;-72
2021/07/06 03:50:27;;;;;;;0.80;0.80;;;18.00;99.90;;;-143.50;100.00;58913.53;4995591;28;20386;-72
2021/07/06 03:52:57;;;;;;;0.80;0.70;;;18.10;99.90;;;-143.50;100.00;58913.53;4995370;28;20438;-72
2021/07/06 03:55:26;;;;;;;0.73;0.70;;;18.20;99.90;;;-143.50;100.00;58913.53;4994173;28;20529;-71
2021/07/06 03:57:55;;;;;;;0.77;0.70;;;18.30;99.90;;;-143.50;100.00;58913.53;4994356;28;20558;-72
2021/07/06 04:00:25;;;;;;;0.70;0.63;;;18.30;99.90;;;-143.50;100.00;58913.53;4995976;28;20487;-72
2021/07/06 04:02:55;;;;;;;0.70;0.67;;;18.30;99.90;;;-143.50;100.00;58913.53;4995872;28;20463;-72
2021/07/06 04:05:23;;;;;;;0.70;0.70;;;18.30;99.90;;;-143.50;100.00;58913.53;4994071;28;20485;-72
2021/07/06 04:07:51;;;;;;;0.70;0.60;;;18.30;99.90;;;-143.50;100.00;58913.53;4994082;28;20531;-71
2021/07/06 04:10:21;;;;;;;0.70;0.60;;;18.30;99.90;;;-143.50;100.00;58913.53;4995586;28;20426;-72
2021/07/06 04:12:50;;;;;;;0.70;0.60;;;18.30;99.90;;;-143.50;100.00;58913.53;4995844;28;20449;-71
2021/07/06 04:15:19;;;;;;;0.70;0.60;;;18.40;99.90;;;-143.50;100.00;58913.53;4994759;28;20512;-71
2021/07/06 04:17:47;;;;;;;0.70;0.60;;;18.30;99.90;;;-143.50;100.00;58913.53;4995555;28;20457;-72
2021/07/06 04:20:18;;;;;;;0.70;0.70;;;18.30;99.90;;;-143.50;100.00;58913.53;4995720;28;20903;-71
2021/07/06 04:22:48;;;;;;;0.80;0.70;;;18.30;99.90;;;-143.50;100.00;58913.53;4995308;28;20443;-72
2021/07/06 04:25:16;;;;;;;0.70;0.60;;;18.20;99.90;;;-143.50;100.00;58913.53;4994389;28;20845;-71
2021/07/06 04:27:44;;;;;;;0.70;0.60;;;18.20;99.90;;;-143.50;100.00;58913.53;4994733;28;20450;-71
2021/07/06 04:30:15;;;;;;;0.70;0.70;;;18.10;99.90;;;-143.50;100.00;58913.53;4994422;28;20501;-71
2021/07/06 04:32:42;;;;;;;0.70;0.60;;;18.10;99.90;;;-143.50;100.00;58913.53;4994184;28;20471;-71
2021/07/06 04:35:11;;;;;;;0.70;0.60;;;18.10;99.90;;;-143.50;100.00;58913.53;4993848;28;20460;-72
2021/07/06 04:37:41;;;;;;;0.70;0.60;;;18.00;99.90;;;-143.50;100.00;58913.53;4994728;28;20442;-72
2021/07/06 04:40:10;;;;;;;1.00;0.93;;;18.00;99.90;;;-143.50;100.00;58913.53;4995103;28;20422;-72
2021/07/06 04:42:37;;;;;;;0.70;0.60;;;18.00;99.90;;;-143.50;100.00;58913.53;4994526;28;20834;-72
2021/07/06 04:45:06;;;;;;;0.70;0.63;;;17.90;99.90;;;-143.50;100.00;58913.53;4993705;28;20433;-72
2021/07/06 04:47:34;;;;;;;0.70;0.60;;;17.90;99.90;;;-143.50;100.00;58913.53;4995073;28;21003;-72
2021/07/06 04:50:01;;;;;;;0.70;0.60;;;17.90;99.90;;;-143.50;100.00;58913.53;4994802;28;20415;-72
2021/07/06 04:52:29;;;;;;;0.70;0.70;;;17.90;99.90;;;-143.50;100.00;58913.53;5026014;28;20493;-73
2021/07/06 04:55:00;;;;;;;0.70;0.60;;;17.90;99.90;;;-143.50;100.00;58913.53;4993637;28;21022;-73
2021/07/06 04:57:28;;;;;;;0.70;0.60;;;17.90;99.90;;;-143.50;100.00;58913.53;4994828;28;20438;-73
2021/07/06 04:59:55;;;;;;;0.70;0.60;;;17.80;99.90;;;-143.50;100.00;58913.53;4994273;28;20529;-74
2021/07/06 05:02:23;;;;;;;0.80;0.70;;;17.80;99.90;;;-143.50;100.00;58913.53;4993312;28;20434;-74
2021/07/06 05:04:51;;;;;;;0.70;0.60;;;17.80;99.90;;;-143.50;100.00;58913.53;4994615;28;20446;-74
2021/07/06 05:07:19;;;;;;;0.70;0.70;;;17.80;99.90;;;-143.50;100.00;58913.53;4994591;28;20545;-75
2021/07/06 05:09:46;;;;;;;0.80;0.70;;;17.80;99.90;;;-143.50;100.00;58913.53;4994938;28;20513;-75
2021/07/06 05:12:15;;;;;;;0.70;0.60;;;17.80;99.90;;;-143.50;100.00;58913.53;4998963;28;20555;-76
2021/07/06 05:14:44;;;;;;;0.70;0.60;;;17.80;99.90;;;-143.50;100.00;58913.53;4998437;28;20467;-76
2021/07/06 05:17:12;;;;;;;0.70;0.70;;;17.80;99.90;;;-143.50;100.00;58913.53;5001932;28;20786;-76
2021/07/06 05:19:39;;;;;;;0.70;0.60;;;17.80;99.90;;;-143.50;100.00;58913.53;5000273;28;20442;-75
2021/07/06 05:22:07;;;;;;;0.70;0.60;;;17.80;99.90;;;-143.50;100.00;58913.53;5030550;28;20516;-75
2021/07/06 05:24:35;;;;;;;0.70;0.60;;;17.80;99.90;;;-143.50;100.00;58913.53;4992116;28;20467;-75
2021/07/06 05:27:03;;;;;;;0.70;0.60;;;17.70;99.90;;;-143.50;100.00;58913.53;4997486;28;21015;-75
2021/07/06 05:29:32;;;;;;;0.70;0.70;;;17.80;99.90;;;-143.50;100.00;58913.53;4994760;28;20772;-73
2021/07/06 05:32:01;;;;;;;0.70;0.70;;;17.80;99.90;;;-143.50;100.00;58913.53;5026107;28;20477;-73
2021/07/06 05:34:30;;;;;;;1.67;1.30;;;17.70;99.90;;;-143.50;100.00;58913.53;4990240;28;20461;-74
2021/07/06 05:36:57;;;;;;;0.70;0.70;;;17.70;99.90;;;-143.50;100.00;58913.53;4998427;28;20499;-75
2021/07/06 05:39:25;;;;;;;0.70;0.60;;;17.70;99.90;;;-143.50;100.00;58913.53;4994222;28;20878;-76
2021/07/06 05:41:53;;;;;;;0.70;0.70;;;17.70;99.90;;;-143.50;100.00;58913.53;4994417;28;20440;-75
2021/07/06 05:44:20;;;;;;;0.73;0.70;;;17.70;99.90;;;-143.50;100.00;58913.53;4992415;28;20474;-75
2021/07/06 05:46:49;;;;;;;0.70;0.60;;;17.70;99.90;;;-143.50;100.00;58913.53;4994066;28;20933;-75
2021/07/06 05:49:22;;;;;;;0.70;0.60;;;17.70;99.90;;;-143.50;100.00;58913.53;4993112;28;20507;-75
2021/07/06 05:51:50;;;;;;;0.70;0.60;;;17.70;99.90;;;-143.50;100.00;58913.53;4992270;28;20527;-74
2021/07/06 05:54:19;;;;;;;0.70;0.60;;;17.70;99.90;;;-143.50;100.00;58913.53;4993205;28;20516;-76
2021/07/06 05:56:47;;;;;;;0.70;0.70;;;17.70;99.90;;;-143.50;100.00;58913.53;4989717;28;20439;-76
2021/07/06 05:59:14;;;;;;;0.70;0.60;;;17.70;99.90;;;-143.50;100.00;58913.53;4976225;28;20409;-76
2021/07/06 06:01:42;;;;;;;0.70;0.70;;;17.70;99.90;;;-143.50;100.00;58913.53;4983344;28;20449;-75
2021/07/06 06:04:11;;;;;;;0.70;0.60;;;17.70;99.90;;;-143.50;100.00;58913.53;4993164;28;20434;-75
2021/07/06 06:06:39;;;;;;;0.70;0.60;;;17.70;99.90;;;-143.50;100.00;58913.53;4992195;28;20438;-75
2021/07/06 06:09:06;;;;;;;0.70;0.60;;;17.70;99.90;;;-143.50;100.00;58913.53;4981206;28;20966;-76
2021/07/06 06:11:34;;;;;;;0.70;0.70;;;17.70;99.90;;;-143.50;100.00;58913.53;5018228;28;20474;-75
2021/07/06 06:14:02;;;;;;;0.70;0.60;;;17.70;99.90;;;-143.50;100.00;58913.53;5019414;28;20949;-75
2021/07/06 06:16:30;;;;;;;0.70;0.63;;;17.70;99.90;;;-143.50;100.00;58913.53;5019579;28;20465;-75
2021/07/06 06:18:57;;;;;;;0.70;0.70;;;17.80;99.90;;;-143.50;100.00;58913.53;4995613;28;20418;-75
2021/07/06 06:21:32;;;;;;;0.70;0.70;;;17.80;99.90;;;-143.50;100.00;58913.53;4992868;28;20426;-75
2021/07/06 06:24:00;;;;;;;0.70;0.70;;;17.80;99.90;;;-143.50;100.00;58913.53;4989175;28;20520;-75
2021/07/06 06:26:29;;;;;;;0.70;0.60;;;17.80;99.90;;;-143.50;100.00;58913.53;4990879;28;20493;-74
2021/07/06 06:28:57;;;;;;;0.70;0.60;;;17.80;99.90;;;-143.50;100.00;58913.53;4985060;28;20412;-75
2021/07/06 06:31:25;;;;;;;0.70;0.60;;;17.80;99.90;;;-143.50;100.00;58913.53;4988581;28;21029;-75
2021/07/06 06:33:53;;;;;;;0.70;0.60;;;17.80;99.90;;;-143.50;100.00;58913.53;4992328;28;20523;-75
2021/07/06 06:36:22;;;;;;;0.70;0.60;;;17.80;99.90;;;-143.50;100.00;58913.53;4982813;28;20857;-75
2021/07/06 06:38:51;;;;;;;0.70;0.60;;;17.80;99.90;;;-143.50;100.00;58913.53;4987767;28;20494;-75
2021/07/06 06:41:19;;;;;;;0.70;0.60;;;17.80;99.90;;;-143.50;100.00;58913.53;4983550;28;20407;-74
2021/07/06 06:43:46;;;;;;;0.70;0.60;;;17.90;99.90;;;-143.50;100.00;58913.53;4985198;28;20439;-75
2021/07/06 06:46:16;;;;;;;0.70;0.60;;;17.90;99.90;;;-143.50;100.00;58913.53;4997174;28;20489;-75
2021/07/06 06:48:43;;;;;;;0.70;0.70;;;17.90;99.90;;;-143.50;100.00;58913.53;4986072;28;20455;-75
2021/07/06 06:51:11;;;;;;;0.70;0.70;;;17.80;99.90;;;-143.50;100.00;58913.53;4976997;28;20441;-75
2021/07/06 06:53:41;;;;;;;0.70;0.60;;;17.90;99.90;;;-143.50;100.00;58913.53;4988496;28;20523;-75
2021/07/06 06:56:13;;;;;;;0.70;0.60;;;17.90;99.90;;;-143.50;100.00;58913.53;5007610;28;20454;-75
2021/07/06 06:58:40;;;;;;;0.70;0.70;;;17.90;99.90;;;-143.50;100.00;58913.53;5028564;28;20950;-74
2021/07/06 07:01:07;;;;;;;0.70;0.60;;;17.90;99.90;;;-143.50;100.00;58913.53;4974611;28;20447;-74
2021/07/06 07:03:36;;;;;;;0.70;0.60;;;17.80;99.90;;;-143.50;100.00;58913.53;4994320;28;20506;-75
2021/07/06 07:06:03;;;;;;;0.70;0.60;;;17.80;99.90;;;-143.50;100.00;58913.53;5009218;28;20529;-74
2021/07/06 07:08:31;;;;;;;0.70;0.60;;;17.90;99.90;;;-143.50;100.00;58913.53;5011263;28;20452;-75
2021/07/06 07:10:58;;;;;;;0.70;0.60;;;17.90;99.90;;;-143.50;100.00;58913.53;4988450;28;20500;-75
2021/07/06 07:13:28;;;;;;;0.70;0.60;;;17.80;99.90;;;-143.50;100.00;58913.53;5026029;28;20509;-75
2021/07/06 07:15:56;;;;;;;0.70;0.70;;;17.90;99.90;;;-143.50;100.00;58913.53;4990378;28;20492;-75
2021/07/06 07:18:23;;;;;;;0.70;0.60;;;17.90;99.90;;;-143.50;100.00;58913.53;4994396;28;20541;-76
2021/07/06 07:20:51;;;;;;;0.70;0.60;;;17.90;99.90;;;-143.50;100.00;58913.53;4985608;28;20455;-74
2021/07/06 07:23:18;;;;;;;0.70;0.67;;;17.80;99.90;;;-143.50;100.00;58913.53;4992542;28;20509;-74
2021/07/06 07:25:46;;;;;;;0.70;0.60;;;17.90;99.90;;;-143.50;100.00;58913.53;4994368;28;20445;-74
2021/07/06 07:28:13;;;;;;;0.70;0.60;;;17.90;99.90;;;-143.50;100.00;58913.53;4996060;28;20447;-75
2021/07/06 07:30:42;;;;;;;0.70;0.60;;;18.00;99.90;;;-143.50;100.00;58913.53;4995818;28;20930;-74
2021/07/06 07:33:10;;;;;;;0.70;0.60;;;18.00;99.90;;;-143.50;100.00;58913.53;4995734;28;20466;-74
2021/07/06 07:35:38;;;;;;;0.70;0.60;;;18.00;99.90;;;-143.50;100.00;58913.53;4995980;28;20847;-76
2021/07/06 07:38:05;;;;;;;0.70;0.70;;;18.00;99.90;;;-143.50;100.00;58913.53;4994851;28;20458;-75
2021/07/06 07:40:33;;;;;;;0.70;0.60;;;18.00;99.90;;;-143.50;100.00;58913.53;4991229;28;20439;-73
2021/07/06 07:43:06;;;;;;;0.70;0.70;;;18.00;99.90;;;-143.50;100.00;58913.53;4976521;28;20511;-73
2021/07/06 07:45:35;;;;;;;0.70;0.60;;;18.00;99.90;;;-143.50;100.00;58913.53;4992607;28;20429;-74
2021/07/06 07:48:06;;;;;;;0.70;0.60;;;18.00;99.90;;;-143.50;100.00;58913.53;4995543;28;20439;-73
2021/07/06 07:50:34;;;;;;;0.70;0.60;;;18.00;99.90;;;-143.50;100.00;58913.53;4996223;28;20819;-73
2021/07/06 07:53:03;;;;;;;0.70;0.60;;;18.10;99.90;;;-143.50;100.00;58913.53;4995664;28;20482;-73
2021/07/06 07:55:31;;;;;;;0.70;0.70;;;18.00;99.90;;;-143.50;100.00;58913.53;4995474;28;20455;-73
2021/07/06 07:58:01;;;;;;;0.70;0.70;;;18.00;99.90;;;-143.50;100.00;58913.53;4994515;28;20462;-73
2021/07/06 08:00:30;;;;;;;0.70;0.60;;;18.00;99.90;;;-143.50;100.00;58913.53;4994699;28;20460;-73
2021/07/06 08:02:59;;;;;;;0.70;0.60;;;18.00;99.90;;;-143.50;100.00;58913.53;4995628;28;20449;-73
2021/07/06 08:05:28;;;;;;;0.70;0.60;;;18.00;99.90;;;-143.50;100.00;58913.53;4989727;28;20520;-74
2021/07/06 08:07:56;;;;;;;0.70;0.60;;;18.10;99.90;;;-143.50;100.00;58913.53;4994448;28;20470;-72
2021/07/06 08:10:24;;;;;;;0.70;0.60;;;18.10;99.90;;;-143.50;100.00;58913.53;4995981;28;20403;-73
2021/07/06 08:12:52;;;;;;;0.70;0.60;;;18.10;99.90;;;-143.50;100.00;58913.53;4987494;28;20562;-73
2021/07/06 08:15:21;;;;;;;0.70;0.70;;;18.10;99.90;;;-143.50;100.00;58913.53;4976164;28;20413;-72
2021/07/06 08:17:49;;;;;;;0.70;0.60;;;18.20;99.90;;;-143.50;100.00;58913.53;4975125;28;20473;-72
2021/07/06 08:20:18;;;;;;;1.10;1.00;;;18.30;99.90;;;-143.50;100.00;58913.53;4975615;28;20474;-72
2021/07/06 08:22:47;;;;;;;0.70;0.70;;;18.40;99.90;;;-143.50;100.00;58913.53;4986966;28;20523;-73
2021/07/06 08:25:15;;;;;;;0.70;0.60;;;18.50;99.90;;;-143.50;100.00;58913.53;5001958;28;20420;-72
2021/07/06 08:27:44;;;;;;;0.70;0.60;;;18.60;99.90;;;-143.50;100.00;58913.53;4996698;28;20418;-73
2021/07/06 08:30:12;;;;;;;0.70;0.63;;;18.60;99.90;;;-143.50;100.00;58913.53;4996124;28;20402;-73
2021/07/06 08:32:40;;;;;;;0.80;0.80;;;18.70;99.90;;;-143.50;100.00;58913.53;4994187;28;20474;-71
2021/07/06 08:35:10;;;;;;;0.70;0.70;;;18.80;99.90;;;-143.50;100.00;58913.53;4993719;28;20496;-74
2021/07/06 08:37:41;;;;;;;0.70;0.60;;;18.80;99.90;;;-143.50;100.00;58913.53;4995064;28;20939;-71
2021/07/06 08:40:14;;;;;;;0.70;0.60;;;18.80;99.90;;;-143.50;100.00;58913.53;4995279;28;20433;-71
2021/07/06 08:42:44;;;;;;;0.70;0.60;;;18.80;99.90;;;-143.50;100.00;58913.53;4993563;28;20476;-71
2021/07/06 08:45:12;;;;;;;0.70;0.60;;;18.90;99.90;;;-143.50;100.00;58913.53;4992883;28;20443;-72
2021/07/06 08:47:45;;;;;;;0.80;0.70;;;18.90;99.90;;;-143.50;100.00;58913.53;5021446;28;20523;-73
2021/07/06 08:50:14;;;;;;;0.70;0.70;;;18.90;99.90;;;-143.50;100.00;58913.53;4994208;28;20409;-72
2021/07/06 08:52:47;;;;;;;0.70;0.60;;;18.90;99.90;;;-143.50;100.00;58913.53;4993069;28;20804;-73
2021/07/06 08:55:29;;;;;;;0.70;0.70;;;19.00;99.90;;;-143.50;100.00;58913.53;4993923;28;20424;-74
2021/07/06 08:57:59;;;;;;;0.70;0.70;;;19.00;99.90;;;-143.50;100.00;58913.53;4981237;28;20451;-74
2021/07/06 09:00:30;;;;;;;0.70;0.60;;;19.10;99.90;;;-143.50;100.00;58913.53;4989331;28;20478;-74
2021/07/06 09:03:05;;;;;;;0.70;0.70;;;19.10;99.90;;;-143.50;100.00;58913.53;4992817;28;20425;-74
2021/07/06 09:05:33;;;;;;;0.70;0.70;;;19.10;99.90;;;-143.50;100.00;58913.53;4994132;28;20438;-73
2021/07/06 09:08:04;;;;;;;0.70;0.60;;;19.10;99.90;;;-143.50;100.00;58913.53;4993858;28;20483;-75
2021/07/06 09:10:37;;;;;;;0.97;0.87;;;19.10;99.90;;;-143.50;100.00;58913.53;4993340;28;20394;-74
2021/07/06 09:13:18;;;;;;;0.70;0.63;;;19.20;99.90;;;-143.50;100.00;58913.53;4993769;28;20480;-73
2021/07/06 09:15:51;;;;;;;0.70;0.60;;;19.30;99.90;;;-143.50;100.00;58913.53;4994399;28;20480;-73
2021/07/06 09:18:21;;;;;;;0.70;0.60;;;19.50;99.90;;;-143.50;100.00;58913.53;4992809;28;20950;-74
2021/07/06 09:21:02;;;;;;;0.70;0.60;;;19.60;99.90;;;-143.50;100.00;58913.53;4992678;28;20835;-75
2021/07/06 09:23:34;;;;;;;0.80;0.70;;;19.80;99.90;;;-143.50;100.00;58913.53;4994276;28;20428;-75
2021/07/06 09:26:22;;;;;;;0.70;0.70;;;19.90;99.90;;;-143.50;100.00;58913.53;4993034;28;20455;-74
2021/07/06 09:28:53;;;;;;;0.70;0.67;;;20.10;99.90;;;-143.50;100.00;58913.53;4992811;28;20394;-74
2021/07/06 09:31:26;;;;;;;0.83;0.83;;;20.30;99.90;;;-143.50;100.00;58913.53;4993468;28;20939;-74
2021/07/06 09:34:02;;;;;;;0.70;0.60;;;20.50;99.90;;;-143.50;100.00;58913.53;4992835;28;20844;-74
2021/07/06 09:36:34;;;;;;;0.70;0.60;;;20.70;99.90;;;-143.50;100.00;58913.53;4994052;28;20446;-73
2021/07/06 09:39:17;;;;;;;0.70;0.60;;;20.70;99.90;;;-143.50;100.00;58913.53;4992125;28;20956;-74
2021/07/06 09:42:01;;;;;;;0.70;0.60;;;20.70;99.90;;;-143.50;100.00;58913.53;4993039;28;20939;-74
2021/07/06 09:44:31;;;;;;;0.70;0.60;;;20.70;99.90;;;-143.50;100.00;58913.53;5007870;28;20520;-74
2021/07/06 09:47:03;;;;;;;0.70;0.60;;;20.70;99.90;;;-143.50;100.00;58913.53;4992341;28;20447;-73
2021/07/06 09:49:34;;;;;;;0.77;0.63;;;20.70;99.90;;;-143.50;100.00;58913.53;4992379;28;20990;-72
2021/07/06 09:52:13;;;;;;;0.70;0.60;;;20.70;99.90;;;-143.50;100.00;58913.53;4994068;28;20916;-74
2021/07/06 09:54:46;;;;;;;0.70;0.60;;;20.80;99.90;;;-143.50;100.00;58913.53;4986315;28;20472;-75
2021/07/06 09:57:30;;;;;;;0.70;0.60;;;20.80;99.90;;;-143.50;100.00;58913.53;4992591;28;20793;-73
2021/07/06 10:00:07;;;;;;;0.80;0.70;;;20.70;99.90;;;-143.50;100.00;58913.53;4992635;28;20465;-72
2021/07/06 10:02:44;;;;;;;0.70;0.60;;;20.70;99.90;;;-143.50;100.00;58913.53;4992525;28;20418;-74
2021/07/06 10:05:20;;;;;;;0.70;0.60;;;20.70;99.90;;;-143.50;100.00;58913.53;4990743;28;20478;-73
2021/07/06 10:07:47;;;;;;;0.70;0.60;;;20.80;99.90;;;-143.50;100.00;58913.53;4974382;28;20454;-73
2021/07/06 10:10:15;;;;;;;0.70;0.60;;;20.80;99.90;;;-143.50;100.00;58913.53;4990593;28;20490;-73